Time;durP1;ratioP1;P1;durP2;ratioP2;P2;SDS_P1;SDS_P2;PMS_P1;PMS_P2;Temp;Humidity;BMP_temperature;BMP_pressure;BME280_temperature;BME280_humidity;BME280_pressure;Samples;Min_cycle;Max_cycle;Signal;HPM_P1;HPM_P2
2023/06/20 00:01:23;;;;;;;14.60;11.68;;;;;;;;;;5058638;28;20512;-82
2023/06/20 00:03:48;;;;;;;19.08;11.35;;;18.10;99.90;;;;;;5042074;28;20049;-82
2023/06/20 00:06:14;;;;;;;14.70;11.27;;;18.30;99.90;;;;;;5058578;28;20102;-82
2023/06/20 00:08:40;;;;;;;14.52;11.88;;;18.40;99.90;;;;;;5042103;28;20057;-82
2023/06/20 00:11:06;;;;;;;18.90;13.15;;;;;;;;;;5025556;28;20151;-82
2023/06/20 00:13:34;;;;;;;15.77;12.00;;;;;;;;;;5042113;28;20493;-82
2023/06/20 00:16:01;;;;;;;24.88;13.05;;;;;;;;;;5041844;28;20105;-82
2023/06/20 00:18:27;;;;;;;17.00;11.48;;;;;;;;;;5058563;28;20076;-82
2023/06/20 00:20:53;;;;;;;17.48;11.95;;;;;;;;;;5041985;28;20052;-82
2023/06/20 00:23:21;;;;;;;21.52;12.85;;;18.20;99.90;;;;;;5041670;28;20076;-82
2023/06/20 00:25:47;;;;;;;22.80;12.00;;;;;;;;;;5041776;28;20409;-83
2023/06/20 00:28:16;;;;;;;17.75;13.65;;;;;;;;;;5041946;28;20044;-82
2023/06/20 00:30:42;;;;;;;18.17;13.05;;;;;;;;;;5058240;28;20067;-83
2023/06/20 00:33:08;;;;;;;18.80;12.93;;;;;;;;;;5041663;28;20174;-83
2023/06/20 00:35:34;;;;;;;19.90;13.75;;;;;;;;;;5041597;28;20056;-82
2023/06/20 00:38:01;;;;;;;17.60;13.05;;;;;;;;;;5025118;28;20047;-83
2023/06/20 00:40:27;;;;;;;19.80;14.27;;;;;;;;;;5041236;28;20044;-83
2023/06/20 00:42:53;;;;;;;26.52;14.02;;;18.10;99.90;;;;;;5041445;28;20046;-83
2023/06/20 00:45:26;;;;;;;20.42;12.90;;;18.00;99.90;;;;;;5041369;28;20505;-83
2023/06/20 00:47:52;;;;;;;18.15;13.70;;;;;;;;;;5041466;28;20067;-83
2023/06/20 00:50:19;;;;;;;21.98;13.90;;;;;;;;;;5040618;28;20080;-83
2023/06/20 00:52:46;;;;;;;19.13;14.13;;;18.00;99.90;;;;;;5024794;28;20041;-83
2023/06/20 00:55:12;;;;;;;19.00;13.48;;;17.80;99.90;;;;;;5041117;28;20041;-82
2023/06/20 00:57:42;;;;;;;19.77;13.65;;;17.70;99.90;;;;;;5041161;28;20045;-82
2023/06/20 01:00:12;;;;;;;16.65;14.15;;;17.90;99.90;;;;;;5041133;28;20048;-83
2023/06/20 01:02:38;;;;;;;18.40;13.85;;;;;;;;;;5040971;28;20449;-82
2023/06/20 01:05:04;;;;;;;22.50;14.98;;;17.70;99.90;;;;;;5024677;28;20040;-83
2023/06/20 01:07:42;;;;;;;22.50;13.93;;;17.90;99.90;;;;;;5024657;28;20056;-82
2023/06/20 01:10:21;;;;;;;21.25;14.00;;;17.80;99.90;;;;;;5040865;28;20044;-83
2023/06/20 01:12:59;;;;;;;20.48;13.88;;;17.70;99.90;;;;;;5041168;28;20106;-88
2023/06/20 01:15:37;;;;;;;20.70;13.60;;;17.40;99.90;;;;;;5041071;28;20045;-87
2023/06/20 01:18:25;;;;;;;21.33;14.35;;;17.60;99.90;;;;;;5041175;28;20099;-86
2023/06/20 01:20:58;;;;;;;19.85;15.40;;;17.60;99.90;;;;;;5057509;28;20059;-87
2023/06/20 01:23:32;;;;;;;20.23;15.13;;;17.80;99.90;;;;;;5041141;28;20125;-86
2023/06/20 01:26:21;;;;;;;21.23;14.15;;;17.80;99.90;;;;;;5040579;28;20054;-85
2023/06/20 01:28:58;;;;;;;28.42;15.30;;;17.80;99.90;;;;;;5057404;28;20047;-85
2023/06/20 01:31:32;;;;;;;19.05;14.75;;;17.40;99.90;;;;;;5057674;28;20067;-87
2023/06/20 01:34:04;;;;;;;20.17;14.77;;;17.40;99.90;;;;;;5040665;28;20131;-87
2023/06/20 01:36:34;;;;;;;22.23;14.55;;;17.70;99.90;;;;;;5040545;28;20044;-85
2023/06/20 01:39:08;;;;;;;21.77;13.18;;;17.50;99.90;;;;;;5057042;28;20086;-88
2023/06/20 01:41:37;;;;;;;24.25;14.32;;;17.70;99.90;;;;;;5057975;28;20379;-86
2023/06/20 01:44:10;;;;;;;20.05;15.77;;;17.50;99.90;;;;;;5057443;28;20443;-88
2023/06/20 01:46:36;;;;;;;22.48;16.10;;;;;;;;;;5057027;28;20088;-88
2023/06/20 01:49:03;;;;;;;22.67;14.55;;;;;;;;;;5040020;28;20044;-84
2023/06/20 01:51:30;;;;;;;27.08;15.52;;;17.70;99.90;;;;;;5023929;28;20094;-86
2023/06/20 01:53:59;;;;;;;19.50;14.15;;;17.60;99.90;;;;;;5040345;28;20044;-88
2023/06/20 01:56:26;;;;;;;20.40;13.20;;;17.70;99.90;;;;;;5023885;28;20048;-88
2023/06/20 01:58:54;;;;;;;19.20;13.65;;;17.90;99.90;;;;;;5024055;28;20041;-85
2023/06/20 02:01:22;;;;;;;21.98;13.65;;;17.90;99.90;;;;;;5022965;28;20067;-86
2023/06/20 02:03:48;;;;;;;19.25;14.77;;;;;;;;;;5040300;28;20041;-84
2023/06/20 02:06:15;;;;;;;25.35;13.82;;;17.80;99.90;;;;;;5039692;28;20052;-86
2023/06/20 02:08:42;;;;;;;19.45;14.15;;;17.70;99.90;;;;;;5023340;28;20059;-86
2023/06/20 02:11:09;;;;;;;16.95;13.20;;;17.80;99.90;;;;;;5007421;28;20045;-85
2023/06/20 02:13:36;;;;;;;18.00;13.68;;;17.60;99.90;;;;;;5039914;28;20075;-87
2023/06/20 02:16:06;;;;;;;21.45;13.00;;;17.80;99.90;;;;;;5040372;28;20117;-84
2023/06/20 02:18:33;;;;;;;27.85;15.23;;;;;;;;;;5056265;28;20050;-89
2023/06/20 02:21:06;;;;;;;18.95;13.15;;;17.80;99.90;;;;;;5039679;28;20048;-86
2023/06/20 02:23:34;;;;;;;15.75;11.57;;;17.70;99.90;;;;;;5056163;28;20040;-84
2023/06/20 02:26:07;;;;;;;18.15;12.00;;;17.60;99.90;;;;;;5039477;28;20055;-86
2023/06/20 02:28:37;;;;;;;19.92;13.07;;;17.70;99.90;;;;;;5039748;28;20544;-85
2023/06/20 02:31:05;;;;;;;23.88;13.10;;;17.80;99.90;;;;;;5056338;28;20056;-85
2023/06/20 02:33:32;;;;;;;15.20;12.07;;;17.80;99.90;;;;;;5055845;28;20082;-86
2023/06/20 02:36:01;;;;;;;13.00;11.23;;;17.70;99.90;;;;;;5022959;28;20080;-84
2023/06/20 02:38:27;;;;;;;18.45;12.82;;;;;;;;;;5056026;28;20036;-83
2023/06/20 02:40:53;;;;;;;19.15;12.52;;;17.90;99.90;;;;;;5039143;28;20080;-82
2023/06/20 02:43:19;;;;;;;17.35;11.40;;;;;;;;;;5039048;28;20140;-82
2023/06/20 02:45:50;;;;;;;17.13;11.48;;;17.70;99.90;;;;;;5038956;28;20509;-82
2023/06/20 02:48:26;;;;;;;16.50;11.40;;;17.70;99.90;;;;;;5039131;28;20079;-82
2023/06/20 02:51:06;;;;;;;14.05;10.20;;;17.40;99.90;;;;;;5039000;28;20413;-83
2023/06/20 02:54:07;;;;;;;13.43;11.13;;;17.70;99.90;;;;;;5055621;28;20139;-82
2023/06/20 02:56:38;;;;;;;17.35;11.52;;;17.60;99.90;;;;;;5039041;28;20083;-85
2023/06/20 02:59:07;;;;;;;15.30;11.07;;;17.50;99.90;;;;;;5039276;28;20370;-83
2023/06/20 03:01:35;;;;;;;14.32;11.45;;;17.70;99.90;;;;;;5039423;28;20457;-81
2023/06/20 03:04:04;;;;;;;20.75;12.35;;;17.60;99.90;;;;;;5040265;28;20055;-83
2023/06/20 03:06:31;;;;;;;16.73;11.45;;;17.60;99.90;;;;;;5039128;28;20051;-83
2023/06/20 03:08:59;;;;;;;13.10;9.50;;;17.50;99.90;;;;;;5022246;28;20498;-82
2023/06/20 03:11:25;;;;;;;17.75;10.27;;;17.60;99.90;;;;;;5055518;28;20079;-83
2023/06/20 03:13:51;;;;;;;13.70;10.13;;;;;;;;;;5022050;28;20458;-83
2023/06/20 03:16:18;;;;;;;12.82;10.27;;;;;;;;;;5055125;28;20071;-83
2023/06/20 03:18:47;;;;;;;13.02;9.98;;;;;;;;;;5055039;28;20037;-82
2023/06/20 03:21:13;;;;;;;11.85;8.88;;;;;;;;;;5022705;28;20044;-83
2023/06/20 03:23:40;;;;;;;14.10;9.57;;;;;;;;;;5054959;28;20047;-82
2023/06/20 03:26:06;;;;;;;13.57;9.00;;;;;;;;;;5038658;28;20049;-82
2023/06/20 03:28:32;;;;;;;11.70;9.57;;;;;;;;;;5038531;28;20047;-82
2023/06/20 03:30:58;;;;;;;16.10;9.50;;;;;;;;;;5038718;28;20083;-83
2023/06/20 03:33:24;;;;;;;13.80;9.30;;;;;;;;;;5054903;28;20044;-82
2023/06/20 03:35:50;;;;;;;14.38;9.77;;;;;;;;;;5038382;28;20052;-83
2023/06/20 03:38:17;;;;;;;14.93;11.00;;;;;;;;;;5022447;28;20044;-83
2023/06/20 03:40:43;;;;;;;15.48;10.02;;;;;;;;;;5022421;28;20045;-83
2023/06/20 03:43:09;;;;;;;11.68;9.70;;;17.50;99.90;;;;;;5038504;28;20044;-83
2023/06/20 03:45:35;;;;;;;12.35;9.68;;;;;;;;;;5005625;28;20063;-83
2023/06/20 03:48:01;;;;;;;16.60;10.25;;;;;;;;;;5054705;28;20044;-83
2023/06/20 03:50:27;;;;;;;17.13;8.95;;;17.70;99.90;;;;;;5038392;28;20051;-83
2023/06/20 03:52:53;;;;;;;13.23;9.70;;;;;;;;;;5005596;28;20048;-83
2023/06/20 03:55:18;;;;;;;14.23;10.07;;;17.80;99.90;;;;;;5038401;28;20093;-83
2023/06/20 03:57:44;;;;;;;12.60;9.52;;;17.50;99.90;;;;;;5005563;28;20447;-84
2023/06/20 04:00:12;;;;;;;15.18;9.80;;;17.40;99.90;;;;;;5021798;28;20036;-83
2023/06/20 04:02:41;;;;;;;14.00;10.00;;;17.70;99.90;;;;;;5038716;28;20044;-83
2023/06/20 04:05:11;;;;;;;15.57;10.32;;;17.60;99.90;;;;;;5038662;28;20052;-82
2023/06/20 04:07:36;;;;;;;13.55;9.20;;;17.80;99.90;;;;;;5038205;28;20139;-82
2023/06/20 04:10:03;;;;;;;15.73;11.23;;;17.50;99.90;;;;;;5054746;28;20599;-82
2023/06/20 04:12:29;;;;;;;16.13;9.43;;;;;;;;;;5038000;28;20049;-83
2023/06/20 04:14:58;;;;;;;11.98;9.70;;;;;;;;;;5072810;28;20037;-83
2023/06/20 04:17:23;;;;;;;15.65;10.15;;;17.70;99.90;;;;;;5054420;28;20488;-83
2023/06/20 04:19:49;;;;;;;14.95;9.88;;;;;;;;;;5038204;28;20051;-83
2023/06/20 04:22:16;;;;;;;16.30;10.30;;;;;;;;;;5054630;28;20106;-84
2023/06/20 04:24:41;;;;;;;14.82;9.73;;;17.80;99.90;;;;;;5055068;28;20055;-83
2023/06/20 04:27:07;;;;;;;11.57;9.05;;;;;;;;;;5024893;28;20040;-83
2023/06/20 04:29:33;;;;;;;13.30;9.02;;;;;;;;;;5057867;28;20093;-84
2023/06/20 04:31:59;;;;;;;11.32;9.07;;;;;;;;;;5041591;28;20045;-83
2023/06/20 04:34:26;;;;;;;11.70;9.02;;;;;;;;;;5041613;28;20508;-83
2023/06/20 04:36:52;;;;;;;15.18;9.90;;;;;;;;;;5041361;28;20095;-83
2023/06/20 04:39:18;;;;;;;14.88;9.75;;;;;;;;;;5041337;28;20493;-83
2023/06/20 04:41:44;;;;;;;13.98;9.23;;;17.80;99.90;;;;;;5057792;28;20132;-83
2023/06/20 04:44:10;;;;;;;12.60;9.57;;;;;;;;;;5024795;28;20040;-83
2023/06/20 04:46:36;;;;;;;13.07;9.52;;;;;;;;;;5058101;28;20110;-83
2023/06/20 04:49:02;;;;;;;11.02;9.43;;;;;;;;;;5041459;28;20044;-83
2023/06/20 04:51:28;;;;;;;13.48;9.68;;;;;;;;;;5024859;28;20130;-83
2023/06/20 04:53:54;;;;;;;11.82;8.93;;;;;;;;;;5024858;28;20145;-82
2023/06/20 04:56:22;;;;;;;11.48;9.40;;;;;;;;;;5058048;28;20052;-83
2023/06/20 04:58:48;;;;;;;11.35;8.73;;;;;;;;;;5041311;28;20052;-84
2023/06/20 05:01:14;;;;;;;13.95;9.43;;;;;;;;;;5041328;28;20557;-83
2023/06/20 05:03:42;;;;;;;10.35;8.85;;;17.80;99.90;;;;;;5025101;28;20086;-83
2023/06/20 05:06:08;;;;;;;13.60;9.88;;;;;;;;;;5041008;28;20045;-83
2023/06/20 05:08:34;;;;;;;14.88;9.63;;;18.00;99.90;;;;;;5040813;28;20055;-83
2023/06/20 05:11:00;;;;;;;12.98;9.50;;;;;;;;;;5024379;28;20131;-84
2023/06/20 05:13:26;;;;;;;12.65;9.85;;;;;;;;;;5057752;28;20148;-83
2023/06/20 05:15:52;;;;;;;14.68;9.70;;;;;;;;;;5041052;28;20045;-83
2023/06/20 05:18:18;;;;;;;11.05;8.45;;;;;;;;;;5057497;28;20102;-83
2023/06/20 05:20:44;;;;;;;12.77;8.45;;;;;;;;;;5024376;28;20084;-83
2023/06/20 05:23:10;;;;;;;14.38;9.52;;;;;;;;;;5056954;28;20044;-84
2023/06/20 05:25:37;;;;;;;12.00;8.93;;;;;;;;;;5057271;28;20045;-83
2023/06/20 05:28:03;;;;;;;14.88;10.48;;;18.10;99.90;;;;;;5041037;28;20094;-83
2023/06/20 05:30:28;;;;;;;16.58;9.23;;;18.30;99.90;;;;;;5056917;28;20489;-84
2023/06/20 05:32:54;;;;;;;13.82;8.35;;;18.20;99.90;;;;;;5040847;28;20093;-83
2023/06/20 05:35:20;;;;;;;11.18;8.35;;;;;;;;;;5041032;28;20481;-84
2023/06/20 05:37:49;;;;;;;13.75;9.85;;;;;;;;;;5056970;28;20153;-84
2023/06/20 05:40:15;;;;;;;13.90;9.55;;;;;;;;;;5040243;28;20497;-84
2023/06/20 05:42:41;;;;;;;13.18;9.93;;;;;;;;;;5040736;28;20052;-83
2023/06/20 05:45:08;;;;;;;13.65;9.50;;;18.40;99.90;;;;;;5023795;28;20045;-83
2023/06/20 05:47:34;;;;;;;13.57;9.57;;;;;;;;;;5056690;28;20057;-83
2023/06/20 05:50:00;;;;;;;17.17;9.07;;;;;;;;;;5023803;28;20037;-83
2023/06/20 05:52:26;;;;;;;12.75;9.82;;;;;;;;;;5056869;28;20477;-85
2023/06/20 05:54:55;;;;;;;14.75;9.43;;;;;;;;;;5023998;28;20047;-83
2023/06/20 05:57:21;;;;;;;20.20;9.98;;;;;;;;;;5056469;28;20548;-83
2023/06/20 05:59:47;;;;;;;16.13;10.30;;;;;;;;;;5056355;28;20086;-83
2023/06/20 06:02:15;;;;;;;13.32;9.23;;;;;;;;;;5056989;28;20040;-83
2023/06/20 06:04:43;;;;;;;13.35;10.35;;;18.50;99.90;;;;;;5056715;28;20463;-83
2023/06/20 06:07:10;;;;;;;15.20;10.65;;;;;;;;;;5039693;28;20139;-83
2023/06/20 06:09:35;;;;;;;12.13;9.18;;;18.50;99.90;;;;;;5056200;28;20045;-83
2023/06/20 06:12:01;;;;;;;10.60;9.50;;;18.60;99.90;;;;;;5056346;28;20520;-84
2023/06/20 06:14:27;;;;;;;13.02;9.02;;;18.50;99.90;;;;;;5040016;28;20044;-83
2023/06/20 06:16:53;;;;;;;12.07;10.20;;;;;;;;;;5023344;28;20492;-83
2023/06/20 06:19:20;;;;;;;14.63;9.93;;;18.70;99.90;;;;;;5023460;28;20064;-83
2023/06/20 06:21:47;;;;;;;16.83;8.68;;;;;;;;;;5040095;28;20468;-83
2023/06/20 06:24:13;;;;;;;11.20;9.07;;;18.70;99.90;;;;;;5056380;28;20052;-84
2023/06/20 06:26:39;;;;;;;10.57;9.10;;;;;;;;;;5023170;28;20051;-83
2023/06/20 06:29:05;;;;;;;14.23;10.57;;;;;;;;;;5039595;28;20048;-84
2023/06/20 06:31:34;;;;;;;12.63;10.77;;;18.90;99.90;;;;;;5056034;28;20153;-83
2023/06/20 06:34:01;;;;;;;11.98;10.18;;;;;;;;;;5055967;28;20075;-83
2023/06/20 06:36:31;;;;;;;14.45;9.38;;;18.90;99.90;;;;;;5039338;28;20055;-83
2023/06/20 06:38:58;;;;;;;13.32;9.88;;;19.00;99.90;;;;;;5039383;28;20123;-83
2023/06/20 06:41:24;;;;;;;15.07;9.63;;;;;;;;;;5039744;28;20133;-88
2023/06/20 06:43:50;;;;;;;11.90;9.23;;;;;;;;;;5039908;28;20070;-84
2023/06/20 06:46:16;;;;;;;12.35;10.63;;;19.10;99.90;;;;;;5055947;28;20056;-83
2023/06/20 06:48:41;;;;;;;13.93;10.00;;;19.10;99.90;;;;;;5038698;28;20036;-84
2023/06/20 06:51:07;;;;;;;16.77;11.18;;;19.50;99.90;;;;;;5039386;28;20051;-86
2023/06/20 06:53:33;;;;;;;13.00;9.48;;;;;;;;;;5055907;28;20044;-89
2023/06/20 06:55:59;;;;;;;16.20;10.52;;;;;;;;;;5039548;28;20044;-84
2023/06/20 06:58:25;;;;;;;12.98;10.40;;;19.60;99.90;;;;;;5022843;28;20512;-87
2023/06/20 07:00:51;;;;;;;17.98;11.63;;;19.60;99.90;;;;;;5055800;28;20057;-87
2023/06/20 07:03:17;;;;;;;11.85;10.52;;;;;;;;;;5039033;28;20067;-88
2023/06/20 07:05:43;;;;;;;13.43;10.63;;;;;;;;;;5039393;28;20040;-87
2023/06/20 07:08:09;;;;;;;13.68;10.10;;;20.00;99.90;;;;;;5022988;28;20631;-87
2023/06/20 07:10:34;;;;;;;16.88;11.25;;;19.90;99.90;;;;;;5022998;28;20080;-88
2023/06/20 07:13:00;;;;;;;16.80;10.75;;;20.00;99.90;;;;;;5023715;28;20049;-88
2023/06/20 07:15:27;;;;;;;15.55;10.57;;;20.10;99.90;;;;;;5038758;28;20055;-85
2023/06/20 07:17:53;;;;;;;16.25;10.65;;;;;;;;;;5038738;28;20094;-86
2023/06/20 07:20:19;;;;;;;15.38;9.48;;;;;;;;;;5038822;28;20083;-85
2023/06/20 07:22:45;;;;;;;18.75;11.55;;;;;;;;;;5038920;28;20113;-86
2023/06/20 07:25:12;;;;;;;12.70;9.85;;;;;;;;;;5039312;28;20056;-86
2023/06/20 07:27:37;;;;;;;12.52;9.57;;;20.20;97.90;;;;;;5038904;28;20044;-86
2023/06/20 07:30:04;;;;;;;19.65;11.07;;;20.40;99.30;;;;;;5038295;28;20132;-85
2023/06/20 07:32:29;;;;;;;16.13;11.32;;;20.40;99.10;;;;;;5038778;28;20460;-86
2023/06/20 07:34:55;;;;;;;18.83;12.52;;;20.70;99.60;;;;;;5022625;28;20106;-86
2023/06/20 07:37:21;;;;;;;16.98;11.00;;;20.40;99.90;;;;;;5022500;28;20048;-84
2023/06/20 07:39:48;;;;;;;18.35;11.88;;;20.50;99.90;;;;;;5038827;28;20040;-86
2023/06/20 07:42:14;;;;;;;19.30;12.07;;;;;;;;;;5038736;28;20130;-85
2023/06/20 07:44:39;;;;;;;16.10;10.70;;;20.60;99.90;;;;;;5039194;28;20115;-86
2023/06/20 07:47:05;;;;;;;16.83;11.50;;;20.80;99.50;;;;;;5038457;28;20393;-88
2023/06/20 07:49:31;;;;;;;12.63;11.10;;;20.80;99.90;;;;;;5022574;28;20131;-85
2023/06/20 07:51:57;;;;;;;17.33;11.50;;;20.90;99.90;;;;;;5006114;28;20087;-83
2023/06/20 07:54:23;;;;;;;13.00;10.15;;;21.00;99.90;;;;;;5038695;28;20036;-86
2023/06/20 07:56:49;;;;;;;14.18;11.85;;;20.70;99.40;;;;;;5038619;28;20043;-88
2023/06/20 07:59:14;;;;;;;17.70;11.60;;;20.90;99.60;;;;;;5038677;28;20127;-88
2023/06/20 08:01:40;;;;;;;15.32;11.00;;;;;;;;;;5026425;28;20083;-87
2023/06/20 08:04:06;;;;;;;21.38;11.57;;;21.00;97.70;;;;;;5059678;28;20117;-84
2023/06/20 08:06:32;;;;;;;19.52;11.25;;;21.10;99.80;;;;;;5042635;28;20052;-87
2023/06/20 08:08:58;;;;;;;18.42;10.70;;;21.20;98.90;;;;;;5042660;28;20052;-86
2023/06/20 08:11:24;;;;;;;14.18;10.98;;;20.90;98.30;;;;;;5059440;28;20079;-86
2023/06/20 08:13:50;;;;;;;14.77;11.38;;;21.10;99.50;;;;;;5041903;28;20545;-83
2023/06/20 08:16:17;;;;;;;14.13;10.68;;;;;;;;;;5042382;28;20052;-83
2023/06/20 08:18:43;;;;;;;16.30;9.70;;;;;;;;;;5058513;28;20040;-84
2023/06/20 08:21:09;;;;;;;12.00;10.77;;;21.10;97.10;;;;;;5058524;28;20055;-83
2023/06/20 08:23:35;;;;;;;14.77;10.35;;;21.40;98.30;;;;;;5009027;28;20048;-83
2023/06/20 08:26:01;;;;;;;11.25;10.02;;;21.40;98.30;;;;;;5041772;28;20091;-83
2023/06/20 08:28:26;;;;;;;11.77;9.88;;;21.50;98.10;;;;;;5041783;28;20409;-83
2023/06/20 08:30:52;;;;;;;12.13;10.48;;;21.40;97.90;;;;;;5058290;28;20047;-83
2023/06/20 08:33:19;;;;;;;12.63;10.35;;;21.50;98.30;;;;;;5041578;28;20052;-82
2023/06/20 08:35:46;;;;;;;10.63;9.50;;;21.50;98.10;;;;;;5025195;28;20512;-83
2023/06/20 08:38:11;;;;;;;11.90;10.48;;;21.70;98.30;;;;;;5041513;28;20110;-83
2023/06/20 08:40:38;;;;;;;12.02;10.35;;;21.60;97.70;;;;;;5025061;28;20053;-83
2023/06/20 08:43:05;;;;;;;11.77;9.73;;;21.70;98.00;;;;;;5041606;28;20032;-83
2023/06/20 08:45:31;;;;;;;11.80;8.70;;;22.00;97.60;;;;;;5041559;28;20045;-83
2023/06/20 08:47:59;;;;;;;14.55;9.95;;;22.20;97.40;;;;;;5041439;28;20063;-84
2023/06/20 08:50:25;;;;;;;10.63;9.57;;;22.30;96.50;;;;;;5041237;28;20048;-83
2023/06/20 08:52:54;;;;;;;13.20;10.80;;;22.10;97.00;;;;;;5024800;28;20131;-83
2023/06/20 08:55:21;;;;;;;13.95;10.10;;;22.30;96.80;;;;;;5041452;28;20083;-83
2023/06/20 08:57:47;;;;;;;9.57;8.65;;;22.20;96.40;;;;;;5057734;28;20496;-83
2023/06/20 09:00:23;;;;;;;10.90;8.70;;;22.10;96.50;;;;;;5041573;28;20045;-82
2023/06/20 09:02:53;;;;;;;11.13;9.93;;;22.50;96.60;;;;;;5057730;28;20109;-84
2023/06/20 09:05:20;;;;;;;12.82;10.25;;;22.30;96.40;;;;;;5041369;28;20041;-83
2023/06/20 09:07:46;;;;;;;12.32;9.32;;;22.70;96.50;;;;;;5057587;28;20420;-83
2023/06/20 09:10:17;;;;;;;11.30;8.80;;;22.30;96.00;;;;;;5040724;28;20048;-83
2023/06/20 09:12:45;;;;;;;12.15;9.88;;;22.40;97.00;;;;;;5041155;28;20080;-83
2023/06/20 09:15:16;;;;;;;12.75;9.30;;;22.30;96.00;;;;;;5057516;28;20040;-83
2023/06/20 09:17:43;;;;;;;13.52;10.35;;;22.40;96.00;;;;;;5040697;28;20048;-83
2023/06/20 09:20:16;;;;;;;10.90;9.75;;;22.10;97.00;;;;;;5040741;28;20052;-83
2023/06/20 09:22:42;;;;;;;12.02;10.32;;;22.50;96.10;;;;;;5025017;28;20055;-83
2023/06/20 09:25:10;;;;;;;17.00;10.75;;;22.40;96.10;;;;;;5057272;28;20123;-83
2023/06/20 09:27:37;;;;;;;13.65;10.40;;;22.20;96.10;;;;;;5057283;28;20135;-83
2023/06/20 09:30:04;;;;;;;14.18;9.43;;;22.50;96.10;;;;;;5057315;28;20143;-83
2023/06/20 09:32:39;;;;;;;11.73;9.40;;;22.60;96.00;;;;;;5040885;28;20052;-83
2023/06/20 09:35:07;;;;;;;9.77;8.77;;;22.60;96.20;;;;;;5024093;28;20044;-83
2023/06/20 09:37:51;;;;;;;10.73;9.27;;;22.40;97.10;;;;;;5057063;28;20052;-83
2023/06/20 09:40:19;;;;;;;9.45;8.45;;;22.70;96.00;;;;;;5056779;28;20087;-83
2023/06/20 09:42:46;;;;;;;11.60;9.57;;;22.70;95.80;;;;;;5040316;28;20507;-83
2023/06/20 09:45:15;;;;;;;12.05;8.98;;;22.70;95.80;;;;;;5040276;28;20044;-84
2023/06/20 09:47:42;;;;;;;11.82;8.90;;;22.70;95.70;;;;;;5056778;28;20048;-83
2023/06/20 09:50:15;;;;;;;12.45;9.43;;;22.70;95.30;;;;;;5040278;28;20071;-84
2023/06/20 09:53:07;;;;;;;11.38;9.55;;;22.80;95.00;;;;;;5040510;28;20052;-86
2023/06/20 09:55:35;;;;;;;11.07;8.82;;;22.90;94.20;;;;;;5039421;28;20114;-85
2023/06/20 09:58:03;;;;;;;10.00;8.95;;;22.90;95.00;;;;;;5057015;28;20048;-87
2023/06/20 10:00:31;;;;;;;10.30;8.45;;;23.20;95.10;;;;;;5040425;28;20044;-87
2023/06/20 10:03:01;;;;;;;8.73;7.85;;;23.10;94.90;;;;;;5056844;28;20400;-87
2023/06/20 10:05:28;;;;;;;9.65;8.13;;;23.20;94.50;;;;;;5023343;28;20040;-85
2023/06/20 10:07:57;;;;;;;8.85;8.00;;;23.30;94.40;;;;;;5023546;28;20052;-85
2023/06/20 10:10:23;;;;;;;9.02;8.10;;;23.40;94.40;;;;;;5056766;28;20048;-87
2023/06/20 10:12:49;;;;;;;10.88;7.97;;;23.50;94.30;;;;;;5040273;28;20048;-86
2023/06/20 10:15:16;;;;;;;10.15;8.43;;;23.90;94.30;;;;;;5023965;28;20047;-87
2023/06/20 10:17:46;;;;;;;8.10;7.30;;;23.70;93.60;;;;;;5056490;28;20083;-87
2023/06/20 10:20:37;;;;;;;18.63;7.45;;;23.70;92.80;;;;;;5040781;28;20056;-86
2023/06/20 10:23:05;;;;;;;9.13;6.95;;;24.10;91.30;;;;;;5056211;28;20053;-87
2023/06/20 10:25:31;;;;;;;8.80;7.05;;;24.30;91.20;;;;;;5039756;28;20427;-86
2023/06/20 10:28:01;;;;;;;7.63;6.40;;;24.30;90.70;;;;;;5024184;28;20037;-85
2023/06/20 10:30:53;;;;;;;11.05;6.13;;;24.40;90.20;;;;;;5039738;28;20041;-84
2023/06/20 10:33:34;;;;;;;5.80;5.30;;;24.70;87.90;;;;;;5056506;28;20048;-85
2023/06/20 10:36:08;;;;;;;6.22;5.63;;;24.60;86.50;;;;;;5039765;28;20101;-85
2023/06/20 10:38:38;;;;;;;7.35;5.97;;;24.80;86.30;;;;;;5007515;28;20507;-84
2023/06/20 10:41:14;;;;;;;8.43;6.20;;;24.90;84.20;;;;;;5056463;28;20076;-84
2023/06/20 10:43:56;;;;;;;9.70;6.70;;;25.00;83.60;;;;;;5039541;28;20421;-85
2023/06/20 10:46:48;;;;;;;6.57;5.88;;;25.30;81.70;;;;;;5039878;28;20071;-84
2023/06/20 10:49:14;;;;;;;7.63;6.93;;;25.50;83.50;;;;;;5039788;28;20044;-82
2023/06/20 10:51:48;;;;;;;7.70;7.00;;;25.40;82.60;;;;;;5055820;28;20404;-83
2023/06/20 10:54:14;;;;;;;8.57;6.32;;;25.40;81.20;;;;;;5055890;28;20037;-82
2023/06/20 10:56:43;;;;;;;8.00;6.65;;;25.70;81.10;;;;;;5039466;28;20052;-82
2023/06/20 10:59:09;;;;;;;7.72;5.68;;;25.70;81.40;;;;;;5055540;28;20051;-82
2023/06/20 11:01:35;;;;;;;8.48;6.55;;;25.70;80.20;;;;;;5038998;28;20049;-82
2023/06/20 11:04:05;;;;;;;6.30;5.70;;;25.90;79.20;;;;;;5038726;28;20074;-81
2023/06/20 11:06:32;;;;;;;5.70;5.18;;;26.20;78.20;;;;;;5055376;28;20048;-81
2023/06/20 11:08:59;;;;;;;9.38;5.50;;;26.00;78.00;;;;;;5038601;28;20080;-82
2023/06/20 11:11:51;;;;;;;6.38;5.78;;;26.20;77.30;;;;;;5022528;28;20132;-81
2023/06/20 11:14:23;;;;;;;11.02;5.82;;;26.00;73.50;;;;;;5052234;28;20070;-82
2023/06/20 11:16:51;;;;;;;6.10;5.20;;;26.30;73.50;;;;;;5038899;28;20469;-82
2023/06/20 11:19:26;;;;;;;5.38;4.88;;;26.40;75.60;;;;;;5038629;28;20457;-83
2023/06/20 11:21:52;;;;;;;7.75;4.97;;;26.40;73.70;;;;;;5055545;28;20048;-81
2023/06/20 11:24:22;;;;;;;5.20;4.70;;;26.30;72.70;;;;;;5022335;28;20055;-82
2023/06/20 11:26:48;;;;;;;9.32;5.57;;;26.40;70.30;;;;;;5059334;28;20041;-83
2023/06/20 11:29:14;;;;;;;5.18;4.03;;;26.90;71.30;;;;;;5027562;28;20047;-82
2023/06/20 11:31:39;;;;;;;5.38;4.72;;;26.70;70.70;;;;;;5027287;28;20076;-83
2023/06/20 11:34:10;;;;;;;5.07;4.55;;;26.70;70.40;;;;;;5040575;28;20504;-84
2023/06/20 11:36:37;;;;;;;5.55;5.05;;;26.80;68.00;;;;;;5041019;28;20053;-82
2023/06/20 11:39:13;;;;;;;5.90;4.88;;;27.00;70.20;;;;;;5040608;28;20040;-85
2023/06/20 11:41:39;;;;;;;9.95;5.53;;;27.00;69.60;;;;;;5040691;28;20047;-86
2023/06/20 11:44:20;;;;;;;6.45;5.53;;;26.90;69.30;;;;;;5056849;28;20044;-85
2023/06/20 11:46:46;;;;;;;19.70;5.88;;;26.90;67.50;;;;;;5026045;28;20108;-83
2023/06/20 11:49:11;;;;;;;7.40;5.78;;;27.20;67.80;;;;;;5039709;28;20084;-83
2023/06/20 11:51:38;;;;;;;6.63;5.60;;;27.00;67.40;;;;;;5024517;28;20480;-84
2023/06/20 11:54:12;;;;;;;6.45;5.85;;;27.20;68.10;;;;;;5040309;28;20044;-84
2023/06/20 11:56:38;;;;;;;7.45;5.97;;;27.50;68.90;;;;;;5056912;28;20412;-82
2023/06/20 11:59:08;;;;;;;6.07;5.45;;;27.10;67.70;;;;;;5008115;28;20037;-83
2023/06/20 12:01:34;;;;;;;6.05;5.55;;;27.60;67.50;;;;;;5057043;28;20088;-82
2023/06/20 12:04:12;;;;;;;7.60;5.75;;;27.30;67.00;;;;;;5040496;28;20501;-83
2023/06/20 12:06:44;;;;;;;9.20;6.50;;;27.50;63.90;;;;;;5040536;28;20045;-84
2023/06/20 12:09:11;;;;;;;6.00;5.47;;;27.70;65.30;;;;;;5024305;28;20386;-83
2023/06/20 12:11:54;;;;;;;7.10;5.97;;;27.60;65.60;;;;;;5057213;28;20135;-87
2023/06/20 12:14:22;;;;;;;7.22;5.88;;;27.90;65.30;;;;;;5040835;28;20067;-86
2023/06/20 12:16:49;;;;;;;6.95;5.82;;;27.80;64.90;;;;;;5021448;28;20047;-82
2023/06/20 12:19:15;;;;;;;6.75;6.15;;;27.80;64.40;;;;;;5054737;28;20052;-82
2023/06/20 12:21:42;;;;;;;7.18;6.47;;;27.70;64.60;;;;;;5021924;28;20128;-82
2023/06/20 12:24:11;;;;;;;7.38;6.50;;;28.00;64.60;;;;;;5038626;28;20032;-82
2023/06/20 12:26:37;;;;;;;7.22;6.53;;;28.10;65.10;;;;;;5038012;28;20431;-81
2023/06/20 12:29:04;;;;;;;8.18;6.10;;;28.10;65.60;;;;;;5054807;28;20037;-82
2023/06/20 12:31:30;;;;;;;7.40;5.75;;;28.20;63.70;;;;;;5038151;28;20044;-82
2023/06/20 12:33:56;;;;;;;5.97;5.47;;;28.00;62.40;;;;;;5037942;28;20044;-82
2023/06/20 12:36:22;;;;;;;6.38;5.78;;;28.10;62.50;;;;;;5038589;28;20055;-82
2023/06/20 12:38:48;;;;;;;5.85;5.30;;;28.20;61.50;;;;;;5037806;28;20079;-82
2023/06/20 12:41:13;;;;;;;6.03;5.40;;;28.40;61.00;;;;;;5054449;28;20040;-82
2023/06/20 12:43:40;;;;;;;6.20;5.60;;;28.40;60.60;;;;;;5038036;28;20045;-82
2023/06/20 12:46:06;;;;;;;7.30;5.30;;;28.50;60.00;;;;;;5036180;28;20072;-83
2023/06/20 12:48:31;;;;;;;5.53;4.70;;;28.70;59.50;;;;;;5057045;28;20055;-83
2023/06/20 12:50:57;;;;;;;5.95;5.38;;;28.00;58.80;;;;;;5073795;28;20075;-82
2023/06/20 12:53:23;;;;;;;5.63;5.13;;;29.00;58.20;;;;;;5057047;28;20040;-83
2023/06/20 12:55:52;;;;;;;5.20;4.72;;;29.00;58.80;;;;;;5052798;28;20098;-85
2023/06/20 12:58:20;;;;;;;7.60;5.47;;;29.00;57.90;;;;;;5070846;28;20051;-83
2023/06/20 13:00:47;;;;;;;5.53;5.03;;;29.00;57.50;;;;;;5051947;28;20041;-83
2023/06/20 13:03:13;;;;;;;4.80;4.35;;;29.00;56.70;;;;;;5051004;28;20048;-84
2023/06/20 13:05:38;;;;;;;5.53;4.97;;;29.00;56.20;;;;;;5065441;28;20036;-82
2023/06/20 13:08:05;;;;;;;4.80;4.40;;;29.00;56.20;;;;;;5027045;28;20122;-82
2023/06/20 13:10:31;;;;;;;6.50;4.38;;;29.00;55.60;;;;;;5060053;28;20102;-82